Time;durP1;ratioP1;P1;durP2;ratioP2;P2;SDS_P1;SDS_P2;PMS_P1;PMS_P2;Temp;Humidity;BMP_temperature;BMP_pressure;BME280_temperature;BME280_humidity;BME280_pressure;Samples;Min_cycle;Max_cycle;Signal;HPM_P1;HPM_P2
2021/11/23 00:00:28;;;;;;;45.27;23.33;;;;;;;;;;5010331;28;20213;-76
2021/11/23 00:02:58;;;;;;;29.63;16.73;;;;;;;;;;4994394;28;20224;-75
2021/11/23 00:05:28;;;;;;;35.67;20.83;;;;;;;;;;4994780;28;20283;-75
2021/11/23 00:07:57;;;;;;;14.10;8.47;;;;;;;;;;5004695;28;20225;-75
2021/11/23 00:10:23;;;;;;;8.77;6.13;;;;;;;;;;4991094;28;20244;-75
2021/11/23 00:12:49;;;;;;;8.17;5.17;;;;;;;;;;4991139;28;20249;-75
2021/11/23 00:19:15;;;;;;;9.30;5.07;;;;;;;;;;4974913;28;20237;-76
2021/11/23 00:21:47;;;;;;;5.73;4.40;;;;;;;;;;4979130;28;20286;-75
2021/11/23 00:24:13;;;;;;;6.10;5.50;;;;;;;;;;4983907;28;20224;-76
2021/11/23 00:26:41;;;;;;;10.43;5.73;;;;;;;;;;4992887;28;20644;-75
2021/11/23 00:29:09;;;;;;;6.23;4.70;;;;;;;;;;4984646;28;20221;-74
2021/11/23 00:31:34;;;;;;;9.13;4.87;;;;;;;;;;4990551;28;20224;-74
2021/11/23 00:34:00;;;;;;;7.87;5.17;;;;;;;;;;4970800;28;20209;-74
2021/11/23 00:36:26;;;;;;;8.20;5.03;;;;;;;;;;5012723;28;20283;-74
2021/11/23 00:38:54;;;;;;;7.17;5.00;;;;;;;;;;5024998;28;20217;-75
2021/11/23 00:41:22;;;;;;;6.77;4.80;;;;;;;;;;5023792;28;20223;-76
2021/11/23 00:43:50;;;;;;;5.87;4.87;;;;;;;;;;5031206;28;20216;-75
2021/11/23 00:46:21;;;;;;;8.47;4.30;;;;;;;;;;5013713;28;20235;-75
2021/11/23 00:48:46;;;;;;;10.97;5.50;;;;;;;;;;5012985;28;20291;-76
2021/11/23 00:51:14;;;;;;;5.67;4.43;;;;;;;;;;4996378;28;20220;-76
2021/11/23 00:53:40;;;;;;;9.63;4.57;;;;;;;;;;5012774;28;20220;-76
2021/11/23 00:56:06;;;;;;;4.27;3.87;;;;;;;;;;4995543;28;20227;-76
2021/11/23 00:58:34;;;;;;;10.10;4.53;;;;;;;;;;5012810;28;20769;-75
2021/11/23 01:01:03;;;;;;;7.13;4.20;;;;;;;;;;5005285;28;20220;-75
2021/11/23 01:03:32;;;;;;;6.33;4.13;;;;;;;;;;5012625;28;20247;-76
2021/11/23 01:06:02;;;;;;;7.67;4.10;;;;;;;;;;5003978;28;20247;-76
2021/11/23 01:08:31;;;;;;;6.33;4.30;;;;;;;;;;5005088;28;20220;-74
2021/11/23 01:10:56;;;;;;;7.20;3.97;;;;;;;;;;5010765;28;20221;-74
2021/11/23 01:13:22;;;;;;;6.53;4.17;;;;;;;;;;4976763;28;20228;-76
2021/11/23 01:15:48;;;;;;;6.30;4.37;;;;;;;;;;5005052;28;20316;-76
2021/11/23 01:18:18;;;;;;;4.00;3.70;;;;;;;;;;5016659;28;20216;-77
2021/11/23 01:20:44;;;;;;;6.60;4.07;;;;;;;;;;5011815;28;20248;-76
2021/11/23 01:23:12;;;;;;;6.63;3.90;;;;;;;;;;5014334;28;20268;-76
2021/11/23 01:25:38;;;;;;;7.30;4.20;;;;;;;;;;4994081;28;20225;-76
2021/11/23 01:28:08;;;;;;;5.50;3.63;;;;;;;;;;4977288;28;20217;-74
2021/11/23 01:30:37;;;;;;;7.20;4.20;;;;;;;;;;4989690;28;20224;-76
2021/11/23 01:33:03;;;;;;;6.57;4.10;;;;;;;;;;5013199;28;20225;-76
2021/11/23 01:35:28;;;;;;;7.83;4.13;;;;;;;;;;5015240;28;20225;-76
2021/11/23 01:37:55;;;;;;;5.93;4.03;;;;;;;;;;4981253;28;20305;-76
2021/11/23 01:40:23;;;;;;;6.80;4.20;;;;;;;;;;4999666;28;20227;-75
2021/11/23 01:42:49;;;;;;;8.10;4.33;;;;;;;;;;4963118;28;20221;-76
2021/11/23 01:45:17;;;;;;;8.03;4.27;;;;;;;;;;5001185;28;20218;-74
2021/11/23 01:47:43;;;;;;;6.63;4.07;;;;;;;;;;4977784;28;20296;-74
2021/11/23 01:50:11;;;;;;;7.17;4.90;;;;;;;;;;5012187;28;20244;-75
2021/11/23 01:52:40;;;;;;;8.20;4.73;;;;;;;;;;4995988;28;20288;-75
2021/11/23 01:55:08;;;;;;;7.77;4.67;;;;;;;;;;5007431;28;20220;-75
2021/11/23 01:57:35;;;;;;;6.47;4.67;;;;;;;;;;5010449;28;20223;-75
2021/11/23 02:00:07;;;;;;;6.93;4.70;;;;;;;;;;4972576;28;20713;-75
2021/11/23 02:02:41;;;;;;;7.03;4.63;;;;;;;;;;4992061;28;20220;-76
2021/11/23 02:05:09;;;;;;;9.23;5.00;;;;;;;;;;5002481;28;20271;-75
2021/11/23 02:07:37;;;;;;;6.30;4.60;;;;;;;;;;4993111;28;20307;-75
2021/11/23 02:10:04;;;;;;;7.77;5.20;;;;;;;;;;5002821;28;20241;-76
2021/11/23 02:12:32;;;;;;;6.63;4.70;;;;;;;;;;4983273;28;20250;-75
2021/11/23 02:15:00;;;;;;;9.20;5.40;;;;;;;;;;4974545;28;20228;-75
2021/11/23 02:17:28;;;;;;;8.87;5.37;;;;;;;;;;4995130;28;20303;-76
2021/11/23 02:19:54;;;;;;;6.63;5.03;;;;;;;;;;5011061;28;20737;-75
2021/11/23 02:22:21;;;;;;;8.40;5.27;;;;;;;;;;4994287;28;20224;-76
2021/11/23 02:24:47;;;;;;;5.70;4.97;;;;;;;;;;4990641;28;20309;-76
2021/11/23 02:27:15;;;;;;;10.20;5.20;;;;;;;;;;5017497;28;20310;-75
2021/11/23 02:29:43;;;;;;;6.43;4.70;;;;;;;;;;5030536;28;20247;-76
2021/11/23 02:32:09;;;;;;;6.33;4.87;;;;;;;;;;4998186;28;20221;-76
2021/11/23 02:34:34;;;;;;;7.53;4.70;;;;;;;;;;5011386;28;20646;-75
2021/11/23 02:37:00;;;;;;;5.33;4.40;;;;;;;;;;4997009;28;20275;-75
2021/11/23 02:39:26;;;;;;;4.67;4.20;;;;;;;;;;5019881;28;20221;-76
2021/11/23 02:41:54;;;;;;;8.63;4.60;;;;;;;;;;5006803;28;20228;-77
2021/11/23 02:44:22;;;;;;;7.03;4.73;;;;;;;;;;4986718;28;20221;-75
2021/11/23 02:46:50;;;;;;;5.23;4.53;;;;;;;;;;5003168;28;20228;-74
2021/11/23 02:49:21;;;;;;;5.10;4.60;;;;;;;;;;5010298;28;20220;-76
2021/11/23 02:51:48;;;;;;;6.10;4.30;;;;;;;;;;4992946;28;20714;-76
2021/11/23 02:54:16;;;;;;;7.50;5.20;;;;;;;;;;4974168;28;20221;-76
2021/11/23 02:56:42;;;;;;;5.33;4.83;;;;;;;;;;4985937;28;20225;-76
2021/11/23 02:59:10;;;;;;;6.50;4.83;;;;;;;;;;4994361;28;20314;-76
2021/11/23 03:01:43;;;;;;;7.57;5.30;;;;;;;;;;5006819;28;20232;-76
2021/11/23 03:04:12;;;;;;;5.83;5.17;;;;;;;;;;4987197;28;20278;-76
2021/11/23 03:06:39;;;;;;;7.33;6.20;;;;;;;;;;5007177;28;20252;-76
2021/11/23 03:09:07;;;;;;;6.80;5.57;;;;;;;;;;4995285;28;20219;-76
2021/11/23 03:11:37;;;;;;;8.13;6.30;;;;;;;;;;5007220;28;20224;-76
2021/11/23 03:14:05;;;;;;;9.00;6.60;;;;;;;;;;5010277;28;20231;-76
2021/11/23 03:16:33;;;;;;;8.80;6.53;;;;;;;;;;5004344;28;20221;-76
2021/11/23 03:19:02;;;;;;;8.27;6.63;;;;;;;;;;4974547;28;20221;-75
2021/11/23 03:21:27;;;;;;;7.73;6.73;;;;;;;;;;4994618;28;20225;-76
2021/11/23 03:23:57;;;;;;;8.40;6.53;;;;;;;;;;5010855;28;20209;-76
2021/11/23 03:26:25;;;;;;;8.13;6.53;;;;;;;;;;5002124;28;20231;-76
2021/11/23 03:28:51;;;;;;;8.50;7.37;;;;;;;;;;4994040;28;20228;-76
2021/11/23 03:31:21;;;;;;;9.60;7.33;;;;;;;;;;4977449;28;20221;-76
2021/11/23 03:33:47;;;;;;;8.37;7.50;;;;;;;;;;4998376;28;20220;-76
2021/11/23 03:36:15;;;;;;;11.60;8.73;;;;;;;;;;5008063;28;20691;-76
2021/11/23 03:38:48;;;;;;;9.20;8.23;;;;;;;;;;5002605;28;20208;-76
2021/11/23 03:41:16;;;;;;;11.40;8.37;;;;;;;;;;4991893;28;20225;-75
2021/11/23 03:43:41;;;;;;;9.93;8.70;;;;;;;;;;5007052;28;20610;-75
2021/11/23 03:46:07;;;;;;;12.07;9.07;;;;;;;;;;5003534;28;20274;-75
2021/11/23 03:48:37;;;;;;;11.07;9.13;;;;;;;;;;4978571;28;20224;-75
2021/11/23 03:51:03;;;;;;;11.23;9.17;;;;;;;;;;4974221;28;20692;-75
2021/11/23 03:53:29;;;;;;;12.20;9.03;;;;;;;;;;4974252;28;20221;-75
2021/11/23 03:55:57;;;;;;;12.40;10.13;;;;;;;;;;4992148;28;20278;-75
2021/11/23 03:58:25;;;;;;;13.57;10.90;;;;;;;;;;4995472;28;20244;-76
2021/11/23 04:00:53;;;;;;;12.53;10.37;;;;;;;;;;4977902;28;20218;-75
2021/11/23 04:03:19;;;;;;;13.30;11.13;;;;;;;;;;4992976;28;20229;-75
2021/11/23 04:05:52;;;;;;;14.00;10.67;;;;;;;;;;4967688;28;20720;-75
2021/11/23 04:08:20;;;;;;;12.77;10.80;;;;;;;;;;5009363;28;20208;-74
2021/11/23 04:10:48;;;;;;;14.17;11.07;;;;;;;;;;5011449;28;20228;-76
2021/11/23 04:13:19;;;;;;;14.30;11.67;;;;;;;;;;4990128;28;20266;-75
2021/11/23 04:15:47;;;;;;;14.77;11.27;;;;;;;;;;4981783;28;20217;-75
2021/11/23 04:18:13;;;;;;;13.83;11.20;;;;;;;;;;4977489;28;20212;-76
2021/11/23 04:20:42;;;;;;;17.27;12.43;;;;;;;;;;5035945;28;20327;-77
2021/11/23 04:23:07;;;;;;;15.80;12.67;;;;;;;;;;5025200;28;20262;-75
2021/11/23 04:25:36;;;;;;;16.53;12.17;;;;;;;;;;5017298;28;20260;-77
2021/11/23 04:28:04;;;;;;;12.80;11.00;;;;;;;;;;5013740;28;20221;-75
2021/11/23 04:30:34;;;;;;;15.07;12.27;;;;;;;;;;5013427;28;20223;-75
2021/11/23 04:33:02;;;;;;;15.03;11.93;;;;;;;;;;4996460;28;20228;-75
2021/11/23 04:35:28;;;;;;;16.13;13.40;;;;;;;;;;4996874;28;20216;-75
2021/11/23 04:37:56;;;;;;;20.23;12.53;;;;;;;;;;4981080;28;20217;-75
2021/11/23 04:40:24;;;;;;;18.57;12.40;;;;;;;;;;5025617;28;20224;-76
2021/11/23 04:42:50;;;;;;;15.93;12.23;;;;;;;;;;5012381;28;20221;-76
2021/11/23 04:45:16;;;;;;;18.67;12.93;;;;;;;;;;5016729;28;20299;-76
2021/11/23 04:47:44;;;;;;;17.00;13.10;;;;;;;;;;4980364;28;20677;-75
2021/11/23 04:50:10;;;;;;;18.43;13.87;;;;;;;;;;5012342;28;20224;-75
2021/11/23 04:52:40;;;;;;;18.87;13.63;;;;;;;;;;5013249;28;20223;-75
2021/11/23 04:55:09;;;;;;;22.47;15.60;;;;;;;;;;4980067;28;20825;-75
2021/11/23 04:57:35;;;;;;;22.03;15.87;;;;;;;;;;4987833;28;20311;-76
2021/11/23 05:00:01;;;;;;;20.10;14.00;;;;;;;;;;5009648;28;20241;-76
2021/11/23 05:02:31;;;;;;;22.57;14.50;;;;;;;;;;4976736;28;20242;-75
2021/11/23 05:04:57;;;;;;;21.80;14.23;;;;;;;;;;4992432;28;20341;-76
2021/11/23 05:07:27;;;;;;;19.17;13.40;;;;;;;;;;4991305;28;20693;-75
2021/11/23 05:09:53;;;;;;;19.80;13.53;;;;;;;;;;5014078;28;20307;-75
2021/11/23 05:12:21;;;;;;;17.90;13.40;;;;;;;;;;5001032;28;20367;-75
2021/11/23 05:14:50;;;;;;;19.07;13.10;;;;;;;;;;4980681;28;20320;-75
2021/11/23 05:17:16;;;;;;;18.57;13.10;;;;;;;;;;4992821;28;20224;-75
2021/11/23 05:19:44;;;;;;;18.40;13.63;;;;;;;;;;5010521;28;20272;-75
2021/11/23 05:22:10;;;;;;;18.43;13.23;;;;;;;;;;5011504;28;20267;-76
2021/11/23 05:24:38;;;;;;;19.90;13.97;;;;;;;;;;4993991;28;20618;-75
2021/11/23 05:27:04;;;;;;;18.20;13.50;;;;;;;;;;4976441;28;20230;-75
2021/11/23 05:29:32;;;;;;;17.07;12.70;;;;;;;;;;4965904;28;20216;-76
2021/11/23 05:31:57;;;;;;;17.93;13.27;;;;;;;;;;4996016;28;20721;-75
2021/11/23 05:34:28;;;;;;;19.67;13.70;;;;;;;;;;4971386;28;20221;-75
2021/11/23 05:36:57;;;;;;;18.20;13.70;;;;;;;;;;4991280;28;20232;-76
2021/11/23 05:39:26;;;;;;;20.47;14.97;;;;;;;;;;5014876;28;20228;-75
2021/11/23 05:41:52;;;;;;;19.00;14.37;;;;;;;;;;5031995;28;20302;-76
2021/11/23 05:44:17;;;;;;;23.30;16.40;;;;;;;;;;4998566;28;20716;-76
2021/11/23 05:46:43;;;;;;;21.23;15.13;;;;;;;;;;4992714;28;20711;-77
2021/11/23 05:49:09;;;;;;;22.97;15.83;;;;;;;;;;4967165;28;20391;-75
2021/11/23 05:51:34;;;;;;;20.93;14.87;;;;;;;;;;4979633;28;20221;-76
2021/11/23 05:54:00;;;;;;;21.60;16.07;;;;;;;;;;4995509;28;20217;-76
2021/11/23 05:56:29;;;;;;;25.50;16.50;;;;;;;;;;5007469;28;20226;-76
2021/11/23 05:58:59;;;;;;;23.73;16.27;;;;;;;;;;5017069;28;20244;-76
2021/11/23 06:01:27;;;;;;;27.37;16.73;;;;;;;;;;4994746;28;20259;-76
2021/11/23 06:03:58;;;;;;;23.53;16.23;;;;;;;;;;4994891;28;20299;-76
2021/11/23 06:06:26;;;;;;;23.67;15.77;;;;;;;;;;4998053;28;20228;-76
2021/11/23 06:08:56;;;;;;;21.73;15.67;;;;;;;;;;4992741;28;20224;-76
2021/11/23 06:11:27;;;;;;;25.33;17.37;;;;;;;;;;4981396;28;20244;-75
2021/11/23 06:13:55;;;;;;;26.07;17.13;;;;;;;;;;5008336;28;20236;-76
2021/11/23 06:16:21;;;;;;;23.33;16.70;;;;;;;;;;4989944;28;20228;-75
2021/11/23 06:18:52;;;;;;;22.77;16.43;;;;;;;;;;5007816;28;21118;-75
2021/11/23 06:21:23;;;;;;;23.07;15.70;;;;;;;;;;4998030;28;20209;-74
2021/11/23 06:23:52;;;;;;;19.97;15.30;;;;;;;;;;4975428;28;20218;-76
2021/11/23 06:26:21;;;;;;;21.50;15.37;;;;;;;;;;4993386;28;20256;-75
2021/11/23 06:28:53;;;;;;;21.03;15.37;;;;;;;;;;5010427;28;20220;-75
2021/11/23 06:31:21;;;;;;;26.20;16.57;;;;;;;;;;5012668;28;20221;-76
2021/11/23 06:33:48;;;;;;;26.33;16.50;;;;;;;;;;4997246;28;20218;-77
2021/11/23 06:36:15;;;;;;;24.80;15.70;;;;;;;;;;5008257;28;20231;-75
2021/11/23 06:38:41;;;;;;;27.27;16.43;;;;;;;;;;5002323;28;20220;-75
2021/11/23 06:41:07;;;;;;;23.13;15.90;;;;;;;;;;4991229;28;20232;-75
2021/11/23 06:43:35;;;;;;;25.77;16.23;;;;;;;;;;4988390;28;20716;-75
2021/11/23 06:46:01;;;;;;;27.40;15.93;;;;;;;;;;4988246;28;20311;-76
2021/11/23 06:48:26;;;;;;;27.23;16.60;;;;;;;;;;4991086;28;20216;-74
2021/11/23 06:50:53;;;;;;;28.83;16.77;;;;;;;;;;4974761;28;20213;-75
2021/11/23 06:53:21;;;;;;;26.93;16.90;;;;;;;;;;4986256;28;20221;-75
2021/11/23 06:55:49;;;;;;;29.97;17.67;;;;;;;;;;4977002;28;20216;-75
2021/11/23 06:58:15;;;;;;;29.83;17.50;;;;;;;;;;4991989;28;20225;-76
2021/11/23 07:00:41;;;;;;;31.17;18.07;;;;;;;;;;4967822;28;20603;-74
2021/11/23 07:03:08;;;;;;;33.67;19.13;;;;;;;;;;4993938;28;20240;-74
2021/11/23 07:05:36;;;;;;;29.57;18.33;;;;;;;;;;4998799;28;20232;-74
2021/11/23 07:08:05;;;;;;;30.97;17.63;;;;;;;;;;4996358;28;20225;-75
2021/11/23 07:10:33;;;;;;;27.47;16.67;;;;;;;;;;5000268;28;20224;-74
2021/11/23 07:13:01;;;;;;;31.53;18.27;;;;;;;;;;4994429;28;20220;-76
2021/11/23 07:15:29;;;;;;;27.10;17.77;;;;;;;;;;5010421;28;20229;-76
2021/11/23 07:17:57;;;;;;;30.87;18.27;;;;;;;;;;5011689;28;20209;-75
2021/11/23 07:20:23;;;;;;;25.07;17.63;;;;;;;;;;5006449;28;20279;-75
2021/11/23 07:23:08;;;;;;;29.90;18.03;;;;;;;;;;4992310;28;20220;-76
2021/11/23 07:25:35;;;;;;;32.33;18.27;;;;;;;;;;5010274;28;20275;-75
2021/11/23 07:28:00;;;;;;;32.33;19.50;;;;;;;;;;5011009;28;20220;-75
2021/11/23 07:30:31;;;;;;;31.07;19.27;;;;;;;;;;4993981;28;20217;-75
2021/11/23 07:32:57;;;;;;;32.30;19.17;;;;;;;;;;4993473;28;20248;-76
2021/11/23 07:35:25;;;;;;;33.23;19.97;;;;;;;;;;5010915;28;20244;-75
2021/11/23 07:37:53;;;;;;;30.57;18.53;;;;;;;;;;4994976;28;20223;-75
2021/11/23 07:40:19;;;;;;;32.07;19.70;;;;;;;;;;4994268;28;20303;-75
2021/11/23 07:42:51;;;;;;;34.57;20.40;;;;;;;;;;5016347;28;20224;-76
2021/11/23 07:45:18;;;;;;;30.33;19.47;;;;;;;;;;5013826;28;20225;-76
2021/11/23 07:47:44;;;;;;;32.53;20.77;;;;;;;;;;5011061;28;20236;-73
2021/11/23 07:50:10;;;;;;;33.60;19.73;;;;;;;;;;4978702;28;20221;-74
2021/11/23 07:52:41;;;;;;;33.07;19.63;;;;;;;;;;5015007;28;20690;-75
2021/11/23 07:55:07;;;;;;;33.93;21.17;;;;;;;;;;4998377;28;20216;-74
2021/11/23 07:57:37;;;;;;;36.30;21.83;;;;;;;;;;4999587;28;20654;-75
2021/11/23 08:00:09;;;;;;;36.13;21.87;;;;;;;;;;4998184;28;20649;-75
2021/11/23 08:02:45;;;;;;;39.87;27.47;;;;;;;;;;4999017;28;20224;-75
2021/11/23 08:05:12;;;;;;;38.13;24.67;;;;;;;;;;5014708;28;20221;-75
2021/11/23 08:07:40;;;;;;;36.53;25.47;;;;;;;;;;5009870;28;20232;-76
2021/11/23 08:10:11;;;;;;;35.60;21.40;;;;;;;;;;5023089;28;20247;-75
2021/11/23 08:12:38;;;;;;;38.10;21.90;;;;;;;;;;4999868;28;20702;-75
2021/11/23 08:15:06;;;;;;;34.47;20.50;;;;;;;;;;4998483;28;20284;-76
2021/11/23 08:17:35;;;;;;;35.47;21.37;;;;;;;;;;5014584;28;20221;-76
2021/11/23 08:20:01;;;;;;;32.23;20.27;;;;;;;;;;5016149;28;20223;-75
2021/11/23 08:22:27;;;;;;;30.13;20.50;;;;;;;;;;5000379;28;20690;-75
2021/11/23 08:24:52;;;;;;;34.17;19.67;;;;;;;;;;4978508;28;20256;-76
2021/11/23 08:27:21;;;;;;;30.70;19.73;;;;;;;;;;5005439;28;20225;-75
2021/11/23 08:29:46;;;;;;;27.77;17.73;;;;;;;;;;4998072;28;20246;-74
2021/11/23 08:32:12;;;;;;;26.53;16.40;;;;;;;;;;4997475;28;20228;-75
2021/11/23 08:34:40;;;;;;;24.70;15.27;;;;;;;;;;4998237;28;20609;-75
2021/11/23 08:37:11;;;;;;;25.33;15.50;;;;;;;;;;4999258;28;20258;-75
2021/11/23 08:39:37;;;;;;;26.40;18.13;;;;;;;;;;4985352;28;20312;-75
2021/11/23 08:42:03;;;;;;;26.93;15.67;;;;;;;;;;5000129;28;20240;-76
2021/11/23 08:44:32;;;;;;;25.10;15.37;;;;;;;;;;5014044;28;20223;-75
2021/11/23 08:47:07;;;;;;;27.23;16.87;;;;;;;;;;4993796;28;20229;-77
2021/11/23 08:49:35;;;;;;;30.17;17.37;;;;;;;;;;4977968;28;20258;-74
2021/11/23 08:52:03;;;;;;;31.50;17.73;;;;;;;;;;4965318;28;20209;-75
2021/11/23 08:54:31;;;;;;;31.23;18.17;;;;;;;;;;5020478;28;20772;-75
2021/11/23 08:57:07;;;;;;;33.27;17.87;;;;;;;;;;5023314;28;20626;-75
2021/11/23 08:59:34;;;;;;;31.37;18.07;;;;;;;;;;5004442;28;20220;-76
2021/11/23 09:02:03;;;;;;;33.77;18.53;;;;;;;;;;5010929;28;20263;-75
2021/11/23 09:04:30;;;;;;;29.10;17.23;;;;;;;;;;5008911;28;20229;-74
2021/11/23 09:06:56;;;;;;;28.80;17.20;;;;;;;;;;5008667;28;20226;-74
2021/11/23 09:09:27;;;;;;;29.60;17.17;;;;;;;;;;5008250;28;20219;-74
2021/11/23 09:11:56;;;;;;;31.40;17.60;;;;;;;;;;4994901;28;20303;-76
2021/11/23 09:14:21;;;;;;;33.13;18.33;;;;;;;;;;5012967;28;20271;-73
2021/11/23 09:16:47;;;;;;;30.93;17.17;;;;;;;;;;5005655;28;20691;-75
2021/11/23 09:19:16;;;;;;;29.53;15.93;;;;;;;;;;4988410;28;20255;-75
2021/11/23 09:21:44;;;;;;;27.87;15.57;;;;;;;;;;5005097;28;20308;-74
2021/11/23 09:24:12;;;;;;;28.47;15.77;;;;;;;;;;5008693;28;20221;-74
2021/11/23 09:26:38;;;;;;;24.17;15.10;;;;;;;;;;5002999;28;20762;-76
2021/11/23 09:29:07;;;;;;;26.27;15.40;;;;;;;;;;5010357;28;20687;-74
2021/11/23 09:31:37;;;;;;;22.57;14.67;;;;;;;;;;4983040;28;20921;-74
2021/11/23 09:34:03;;;;;;;24.53;14.70;;;;;;;;;;5009288;28;20772;-75
2021/11/23 09:36:31;;;;;;;22.33;12.97;;;;;;;;;;4993547;28;20236;-75
2021/11/23 09:39:01;;;;;;;23.40;14.30;;;;;;;;;;5028235;28;20749;-75
2021/11/23 09:41:31;;;;;;;20.27;13.07;;;;;;;;;;5032981;28;20713;-75
2021/11/23 09:43:59;;;;;;;20.03;13.43;;;;;;;;;;5000383;28;20234;-76
2021/11/23 09:46:31;;;;;;;18.97;12.57;;;;;;;;;;4993246;28;20240;-74
2021/11/23 09:48:59;;;;;;;18.53;11.93;;;;;;;;;;4991874;28;20240;-75
2021/11/23 09:51:28;;;;;;;19.57;11.40;;;;;;;;;;5013361;28;20221;-76
2021/11/23 09:53:59;;;;;;;18.13;11.47;;;;;;;;;;5017736;28;20221;-76
2021/11/23 09:56:25;;;;;;;16.83;10.60;;;;;;;;;;5014192;28;20240;-76
2021/11/23 09:58:55;;;;;;;18.93;10.63;;;;;;;;;;5005031;28;20214;-75
2021/11/23 10:01:29;;;;;;;16.73;9.93;;;;;;;;;;4984060;28;20229;-76
2021/11/23 10:04:04;;;;;;;17.67;10.10;;;;;;;;;;4978959;28;20247;-76
2021/11/23 10:06:33;;;;;;;20.90;10.63;;;;;;;;;;4994963;28;20224;-77
2021/11/23 10:09:01;;;;;;;16.47;10.33;;;;;;;;;;5006903;28;20251;-75
2021/11/23 10:11:33;;;;;;;15.33;9.60;;;;;;;;;;5012780;28;20482;-75
2021/11/23 10:14:03;;;;;;;13.57;8.77;;;;;;;;;;4977134;28;20221;-74
2021/11/23 10:16:43;;;;;;;15.80;9.33;;;;;;;;;;4976521;28;20711;-76
2021/11/23 10:19:12;;;;;;;12.30;8.13;;;;;;;;;;4978296;28;20694;-74
2021/11/23 10:22:07;;;;;;;15.23;8.57;;;;;;;;;;4996414;28;20225;-75
2021/11/23 10:24:38;;;;;;;16.93;9.07;;;;;;;;;;4999080;28;20699;-75
2021/11/23 10:27:20;;;;;;;15.63;9.00;;;;;;;;;;4996629;28;20762;-75
2021/11/23 10:29:52;;;;;;;15.80;9.97;;;;;;;;;;5012831;28;20234;-75
2021/11/23 10:32:20;;;;;;;12.03;8.20;;;;;;;;;;4998241;28;20228;-76
2021/11/23 10:34:50;;;;;;;11.43;8.50;;;;;;;;;;5012608;28;20263;-76
2021/11/23 10:37:29;;;;;;;14.43;8.73;;;;;;;;;;4993440;28;20225;-75
2021/11/23 10:39:55;;;;;;;12.40;7.87;;;;;;;;;;5007200;28;20225;-76
2021/11/23 10:42:30;;;;;;;17.47;9.63;;;;;;;;;;4994705;28;20232;-76
2021/11/23 10:44:59;;;;;;;15.80;10.10;;;;;;;;;;4992791;28;20231;-76
2021/11/23 10:47:27;;;;;;;15.53;10.37;;;;;;;;;;5007446;28;20245;-75
2021/11/23 10:49:55;;;;;;;10.87;8.00;;;;;;;;;;5028817;28;20217;-75
2021/11/23 10:52:29;;;;;;;14.80;9.03;;;;;;;;;;4995461;28;20228;-75
2021/11/23 10:54:57;;;;;;;9.63;6.80;;;;;;;;;;4983327;28;20352;-77
2021/11/23 10:57:23;;;;;;;10.13;6.87;;;;;;;;;;4985640;28;20229;-76
2021/11/23 10:59:54;;;;;;;9.50;6.70;;;;;;;;;;4992949;28;20220;-76
2021/11/23 11:02:24;;;;;;;12.23;7.37;;;;;;;;;;4998767;28;20703;-76
2021/11/23 11:04:53;;;;;;;9.90;6.27;;;;;;;;;;4988645;28;20229;-77
2021/11/23 11:07:20;;;;;;;8.90;5.53;;;;;;;;;;4982771;28;20323;-75
2021/11/23 11:09:45;;;;;;;7.57;5.80;;;;;;;;;;5008158;28;20664;-75
2021/11/23 11:12:14;;;;;;;9.67;6.23;;;;;;;;;;4997252;28;20220;-75
2021/11/23 11:14:39;;;;;;;7.47;5.10;;;;;;;;;;5007935;28;20298;-74
2021/11/23 11:17:09;;;;;;;6.73;5.20;;;;;;;;;;4998562;28;20660;-77
2021/11/23 11:19:50;;;;;;;8.43;6.30;;;;;;;;;;4990302;28;20616;-75
2021/11/23 11:22:23;;;;;;;11.77;5.83;;;;;;;;;;4997370;28;20232;-75
2021/11/23 11:24:56;;;;;;;9.70;8.07;;;;;;;;;;4978180;28;20263;-76
2021/11/23 11:27:34;;;;;;;8.30;6.37;;;;;;;;;;4976457;28;21807;-75
2021/11/23 11:30:23;;;;;;;7.37;5.43;;;;;;;;;;5002048;28;20228;-76
2021/11/23 11:33:00;;;;;;;9.23;5.93;;;;;;;;;;4995917;28;20217;-76
2021/11/23 11:35:36;;;;;;;9.50;6.07;;;;;;;;;;4996763;28;20223;-76
2021/11/23 11:38:09;;;;;;;7.77;5.70;;;;;;;;;;4994877;28;20236;-76
2021/11/23 11:40:40;;;;;;;10.43;5.67;;;;;;;;;;4997924;28;20229;-76
2021/11/23 11:43:07;;;;;;;9.97;5.83;;;;;;;;;;4945023;28;20221;-76
2021/11/23 11:45:46;;;;;;;11.53;6.57;;;;;;;;;;5005214;28;20236;-75
2021/11/23 11:48:33;;;;;;;9.60;6.90;;;;;;;;;;5013734;28;20266;-76
2021/11/23 11:51:14;;;;;;;11.97;6.57;;;;;;;;;;4999701;28;20229;-76
2021/11/23 11:53:45;;;;;;;9.83;6.57;;;;;;;;;;5017072;28;20252;-77
2021/11/23 11:56:12;;;;;;;10.73;6.47;;;;;;;;;;5011127;28;20226;-76
2021/11/23 11:58:57;;;;;;;9.47;6.53;;;;;;;;;;4996151;28;20229;-76
2021/11/23 12:01:27;;;;;;;7.20;5.60;;;;;;;;;;4990644;28;20221;-77
2021/11/23 12:04:11;;;;;;;7.57;6.10;;;;;;;;;;4995072;28;20243;-77
2021/11/23 12:06:56;;;;;;;7.20;5.60;;;;;;;;;;4984466;28;20236;-74
2021/11/23 12:09:43;;;;;;;9.87;6.53;;;;;;;;;;5009405;28;20847;-76
2021/11/23 12:12:12;;;;;;;9.60;6.83;;;;;;;;;;5009941;28;20240;-75
2021/11/23 12:14:54;;;;;;;12.40;7.57;;;;;;;;;;4994562;28;20741;-76
2021/11/23 12:17:25;;;;;;;10.93;6.67;;;;;;;;;;4988047;28;20251;-75
2021/11/23 12:20:03;;;;;;;7.40;5.30;;;;;;;;;;4998715;28;20221;-75
2021/11/23 12:22:41;;;;;;;7.17;4.43;;;;;;;;;;5014044;28;20678;-76
2021/11/23 12:25:13;;;;;;;8.30;4.97;;;;;;;;;;4996050;28;20223;-77
2021/11/23 12:27:44;;;;;;;6.53;5.00;;;;;;;;;;4983072;28;20236;-77
2021/11/23 12:30:13;;;;;;;6.50;5.00;;;;;;;;;;5000309;28;20217;-76
2021/11/23 12:32:42;;;;;;;11.10;5.80;;;;;;;;;;5000994;28;20299;-75
2021/11/23 12:35:11;;;;;;;6.07;4.73;;;;;;;;;;5022212;28;20221;-75
2021/11/23 12:37:40;;;;;;;7.07;4.63;;;;;;;;;;5014758;28;20243;-77
2021/11/23 12:40:24;;;;;;;9.20;5.40;;;;;;;;;;5008490;28;20299;-76
2021/11/23 12:42:54;;;;;;;7.63;4.73;;;;;;;;;;4997404;28;20221;-77
2021/11/23 12:45:26;;;;;;;8.33;5.70;;;;;;;;;;5004563;28;20247;-74
2021/11/23 12:47:54;;;;;;;8.37;5.03;;;;;;;;;;5014839;28;20705;-75
2021/11/23 12:50:20;;;;;;;7.40;5.40;;;;;;;;;;4997675;28;20217;-76
2021/11/23 12:52:48;;;;;;;5.73;5.13;;;;;;;;;;5015225;28;20244;-75
2021/11/23 12:55:19;;;;;;;8.17;5.00;;;;;;;;;;4999964;28;20229;-74
2021/11/23 12:57:52;;;;;;;11.47;5.60;;;;;;;;;;5016278;28;20326;-76
2021/11/23 13:00:19;;;;;;;10.80;5.50;;;;;;;;;;5013422;28;20252;-76
2021/11/23 13:02:55;;;;;;;7.33;5.77;;;;;;;;;;4981169;28;20221;-76
2021/11/23 13:05:28;;;;;;;8.13;5.60;;;;;;;;;;5008012;28;20228;-76
2021/11/23 13:08:08;;;;;;;7.50;5.10;;;;;;;;;;4993811;28;20244;-75
2021/11/23 13:10:39;;;;;;;9.60;5.47;;;;;;;;;;4977338;28;20241;-76
2021/11/23 13:13:06;;;;;;;9.03;5.50;;;;;;;;;;4990526;28;20213;-75
2021/11/23 13:15:37;;;;;;;8.53;6.10;;;;;;;;;;4987702;28;20221;-75
2021/11/23 13:18:08;;;;;;;9.37;6.33;;;;;;;;;;5011039;28;20233;-75
2021/11/23 13:20:51;;;;;;;8.33;6.23;;;;;;;;;;4995616;28;20300;-75
2021/11/23 13:23:22;;;;;;;9.93;7.23;;;;;;;;;;4991851;28;20669;-75
2021/11/23 13:25:50;;;;;;;7.80;6.70;;;;;;;;;;5004677;28;20221;-75
2021/11/23 13:28:16;;;;;;;9.20;7.70;;;;;;;;;;5009005;28;20302;-76
2021/11/23 13:30:48;;;;;;;9.03;7.53;;;;;;;;;;4997910;28;20718;-75
2021/11/23 13:33:17;;;;;;;11.00;7.40;;;;;;;;;;4993964;28;20228;-74
2021/11/23 13:35:52;;;;;;;9.87;7.30;;;;;;;;;;4992707;28;20232;-75
2021/11/23 13:38:30;;;;;;;11.17;7.10;;;;;;;;;;5013286;28;20587;-76
2021/11/23 13:40:57;;;;;;;9.40;7.10;;;;;;;;;;5008714;28;20221;-76
2021/11/23 13:43:28;;;;;;;9.17;7.30;;;;;;;;;;4993867;28;20775;-76
2021/11/23 13:46:01;;;;;;;10.10;6.83;;;;;;;;;;5005595;28;20221;-75
2021/11/23 13:48:27;;;;;;;10.87;6.70;;;;;;;;;;4992228;28;20225;-77
2021/11/23 13:51:05;;;;;;;9.83;6.03;;;;;;;;;;4992948;28;20255;-75
2021/11/23 13:54:08;;;;;;;8.67;6.30;;;;;;;;;;4992373;28;20230;-76
2021/11/23 13:56:41;;;;;;;8.83;6.10;;;;;;;;;;5009611;28;20224;-75
2021/11/23 13:59:11;;;;;;;9.67;6.73;;;;;;;;;;4994103;28;20224;-80
2021/11/23 14:01:58;;;;;;;9.10;6.23;;;;;;;;;;4991526;28;20220;-75
2021/11/23 14:04:28;;;;;;;12.37;7.90;;;;;;;;;;4999100;28;20627;-76
2021/11/23 14:07:07;;;;;;;10.83;7.70;;;;;;;;;;4983758;28;20237;-77
2021/11/23 14:09:53;;;;;;;10.33;7.70;;;;;;;;;;4995173;28;20225;-76
2021/11/23 14:12:26;;;;;;;10.53;7.17;;;;;;;;;;4981269;28;20213;-76
2021/11/23 14:15:03;;;;;;;13.50;7.10;;;;;;;;;;4995408;28;20212;-76
2021/11/23 14:18:01;;;;;;;7.60;6.63;;;;;;;;;;4966920;28;20647;-76
2021/11/23 14:20:43;;;;;;;10.10;6.77;;;;;;;;;;5006965;28;20221;-74
2021/11/23 14:23:14;;;;;;;8.83;7.60;;;;;;;;;;4994061;28;20959;-76
2021/11/23 14:25:43;;;;;;;17.27;7.60;;;;;;;;;;4975234;28;20222;-76
2021/11/23 14:28:14;;;;;;;9.73;6.73;;;;;;;;;;5009456;28;20707;-77
2021/11/23 14:30:42;;;;;;;12.13;7.53;;;;;;;;;;5003761;28;20226;-75
2021/11/23 14:33:08;;;;;;;12.83;7.87;;;;;;;;;;4993125;28;20232;-75
2021/11/23 14:35:34;;;;;;;10.17;7.87;;;;;;;;;;5008047;28;20221;-76
2021/11/23 14:38:00;;;;;;;10.47;6.87;;;;;;;;;;4958276;28;20600;-75
2021/11/23 14:40:28;;;;;;;11.43;7.90;;;;;;;;;;4998129;28;20217;-76
2021/11/23 14:42:57;;;;;;;11.70;7.70;;;;;;;;;;4984434;28;20563;-75
2021/11/23 14:45:24;;;;;;;13.47;7.93;;;;;;;;;;4989749;28;20293;-74